Site contains unofficial IBTrACS data. Visit the IBTrACS Website to access archived data.

1962 NOT_NAMED (1962042S17128)


IBTrACS version v04r00. Visit IBTrACS website for data access.
Please direct all questions to the IBTrACS Q and A forum

Storm track - Intensity - Wind Radii - Intensity Data - Source Data - All data

Summary Information

Storm ID 1962042S17128
Start Feb 10 23Z
End Feb 16 11Z
ATCF IDs ,SH141962
Track status Best track data.

Storm track plot

Map of storm track

Intensity plots

No Intensity information for this storm


Radial wind information

No radial wind information for this storm


Position and Intensity Table

BASIN ISO_TIME_________ NATURE LAT LON
degrees north degrees east
SI 1962-02-10 23:00:00 NR -17.30 128.20
SI 1962-02-11 00:00:00 TS -17.30 128.11
SI 03:00:00 TS -17.31 127.85
SI 06:00:00 TS -17.31 127.59
SI 09:00:00 TS -17.31 127.30
SI 11:00:00 TS -17.30 127.10
SI 12:00:00 TS -17.30 127.00
SI 15:00:00 TS -17.25 126.70
SI 18:00:00 TS -17.21 126.40
SI 21:00:00 TS -17.19 126.13
SI 23:00:00 TS -17.19 125.98
SI 1962-02-12 00:00:00 TS -17.20 125.91
SI 03:00:00 TS -17.24 125.78
SI 06:00:00 TS -17.31 125.69
SI 09:00:00 TS -17.40 125.59
SI 11:00:00 TS -17.47 125.53
SI 12:00:00 TS -17.51 125.49
SI 15:00:00 TS -17.65 125.34
SI 18:00:00 TS -17.78 125.20
SI 21:00:00 TS -17.86 125.09
SI 23:00:00 TS -17.89 125.02
SI 1962-02-13 00:00:00 TS -17.91 124.99
SI 03:00:00 TS -17.96 124.89
SI 06:00:00 TS -18.00 124.79
SI 09:00:00 TS -18.00 124.70
SI 11:00:00 TS -18.00 124.63
SI 12:00:00 TS -18.00 124.59
SI 15:00:00 TS -18.00 124.45
SI 18:00:00 TS -17.99 124.29
SI 21:00:00 TS -17.99 124.11
SI 23:00:00 TS -18.00 123.98
SI 1962-02-14 00:00:00 TS -18.00 123.91
SI 03:00:00 TS -18.05 123.72
SI 06:00:00 TS -18.11 123.52
SI 07:00:00 TS -18.14 123.45
SI 09:00:00 TS -18.20 123.31
SI 10:00:00 TS -18.23 123.25
SI 11:00:00 TS -18.27 123.18
SI 12:00:00 TS -18.31 123.11
SI 15:00:00 TS -18.45 122.92
SI 16:00:00 TS -18.50 122.85
SI 18:00:00 TS -18.59 122.71
SI 21:00:00 TS -18.70 122.48
SI 23:00:00 TS -18.78 122.30
SI 1962-02-15 00:00:00 TS -18.82 122.20
SI 03:00:00 TS -18.97 121.87
SI 06:00:00 TS -19.11 121.49
SI 07:00:00 TS -19.16 121.36
SI 09:00:00 TS -19.24 121.10
SI 11:00:00 TS -19.29 120.82
SI 12:00:00 TS -19.30 120.69
SI 15:00:00 TS -19.27 120.31
SI 18:00:00 TS -19.21 119.91
SI 21:00:00 TS -19.18 119.49
SI 23:00:00 TS -19.19 119.18
SI 1962-02-16 00:00:00 TS -19.21 119.01
SI 03:00:00 TS -19.33 118.44
SI 06:00:00 TS -19.48 117.81
SI 07:00:00 TS -19.52 117.60
SI 09:00:00 TS -19.60 117.17
SI 11:00:00 TS -19.68 116.72

Source Information

Agency Information
USA bsh141962.txt
TOKYO
CMA
HKO
NEWDELHI
REUNION
BOM
NADI
WELLINGTON
DS824 s_hem.dat:840:14S
TD9636 cons_worldwide_trop_cyclone_18710101-19891231-006:Line=6147
TD9635
NEUMANN
MLC

All available IBTrACS Data

SEASON BASIN SUBBASIN ISO_TIME_________ NATURE LAT LON DIST2LAND LANDFALL IFLAG USA AGENCY USA ATCF_ID USA LAT USA LON USA SSHS DS824 LAT DS824 LON DS824 STAGE TD9636 LAT TD9636 LON TD9636 STAGE STORM SPEED STORM DIR
Year degrees north degrees east km km degrees north degrees east 1 degrees north degrees east degrees north degrees east kts degrees
1962 SI WA 1962-02-10 23:00:00 NR -17.30 128.20 0 0 __________O___ -1 -17.30 128.20 1 5 269
1962 SI WA 1962-02-11 00:00:00 TS -17.30 128.11 0 0 O________OP___ jtwc_sh SH141962 -17.30 128.10 -1 -17.30 128.10 TC -17.30 128.11 1 5 269
1962 SI WA 03:00:00 TS -17.31 127.85 0 0 P________PP___ SH141962 -17.30 127.86 -1 -17.30 127.86 TC -17.32 127.85 1 5 269
1962 SI WA 06:00:00 TS -17.31 127.59 0 0 O________OP___ jtwc_sh SH141962 -17.30 127.60 -1 -17.30 127.60 TC -17.32 127.57 1 5 270
1962 SI WA 09:00:00 TS -17.31 127.30 0 0 P________PP___ SH141962 -17.31 127.31 -1 -17.31 127.31 TC -17.31 127.29 1 6 271
1962 SI WA 11:00:00 TS -17.30 127.10 0 0 P________PO___ SH141962 -17.31 127.10 -1 -17.31 127.10 TC -17.30 127.10 1 6 273
1962 SI WA 12:00:00 TS -17.30 127.00 0 0 O________OP___ jtwc_sh SH141962 -17.30 127.00 -1 -17.30 127.00 TC -17.29 127.00 1 6 278
1962 SI WA 15:00:00 TS -17.25 126.70 0 0 P________PP___ SH141962 -17.25 126.69 -1 -17.25 126.69 TC -17.25 126.70 1 6 279
1962 SI WA 18:00:00 TS -17.21 126.40 0 0 O________OP___ jtwc_sh SH141962 -17.20 126.40 -1 -17.20 126.40 TC -17.22 126.41 1 5 277
1962 SI WA 21:00:00 TS -17.19 126.13 0 0 P________PP___ SH141962 -17.19 126.12 -1 -17.19 126.12 TC -17.20 126.15 1 5 272
1962 SI WA 23:00:00 TS -17.19 125.98 0 0 P________PO___ SH141962 -17.19 125.96 -1 -17.19 125.96 TC -17.20 126.00 1 4 266
1962 SI WA 1962-02-12 00:00:00 TS -17.20 125.91 0 0 O________OP___ jtwc_sh SH141962 -17.20 125.90 -1 -17.20 125.90 TC -17.21 125.94 1 3 255
1962 SI WA 03:00:00 TS -17.24 125.78 0 0 P________PP___ SH141962 -17.23 125.78 -1 -17.23 125.78 TC -17.26 125.79 1 2 243
1962 SI WA 06:00:00 TS -17.31 125.69 0 0 O________OP___ jtwc_sh SH141962 -17.30 125.70 -1 -17.30 125.70 TC -17.34 125.67 1 2 229
1962 SI WA 09:00:00 TS -17.40 125.59 0 0 P________PP___ SH141962 -17.38 125.61 -1 -17.38 125.61 TC -17.43 125.57 1 3 225
1962 SI WA 11:00:00 TS -17.47 125.53 0 0 P________PO___ SH141962 -17.46 125.54 -1 -17.46 125.54 TC -17.50 125.50 1 3 224
1962 SI WA 12:00:00 TS -17.51 125.49 0 0 O________OP___ jtwc_sh SH141962 -17.50 125.50 -1 -17.50 125.50 TC -17.53 125.46 1 4 225
1962 SI WA 15:00:00 TS -17.65 125.34 0 0 P________PP___ SH141962 -17.66 125.35 -1 -17.66 125.35 TC -17.64 125.33 1 4 225
1962 SI WA 18:00:00 TS -17.78 125.20 0 0 O________OP___ jtwc_sh SH141962 -17.80 125.20 -1 -17.80 125.20 TC -17.75 125.20 1 3 230
1962 SI WA 21:00:00 TS -17.86 125.09 0 0 P________PP___ SH141962 -17.86 125.09 -1 -17.86 125.09 TC -17.85 125.08 1 2 238
1962 SI WA 23:00:00 TS -17.89 125.02 0 0 P________PO___ SH141962 -17.89 125.03 -1 -17.89 125.03 TC -17.90 125.00 1 2 243
1962 SI WA 1962-02-13 00:00:00 TS -17.91 124.99 0 0 O________OP___ jtwc_sh SH141962 -17.90 125.00 -1 -17.90 125.00 TC -17.92 124.97 1 2 242
1962 SI WA 03:00:00 TS -17.96 124.89 0 0 P________PP___ SH141962 -17.96 124.90 -1 -17.96 124.90 TC -17.96 124.87 1 2 244
1962 SI WA 06:00:00 TS -18.00 124.79 0 0 O________OP___ jtwc_sh SH141962 -18.00 124.80 -1 -18.00 124.80 TC -17.99 124.78 1 2 256
1962 SI WA 09:00:00 TS -18.00 124.70 0 0 P________PP___ SH141962 -18.01 124.71 -1 -18.01 124.71 TC -18.00 124.68 1 2 268
1962 SI WA 11:00:00 TS -18.00 124.63 0 0 P________PO___ SH141962 -18.00 124.64 -1 -18.00 124.64 TC -18.00 124.60 1 2 272
1962 SI WA 12:00:00 TS -18.00 124.59 0 0 O________OP___ jtwc_sh SH141962 -18.00 124.60 -1 -18.00 124.60 TC -18.00 124.56 1 2 272
1962 SI WA 15:00:00 TS -18.00 124.45 0 0 P________PP___ SH141962 -18.00 124.47 -1 -18.00 124.47 TC -17.99 124.43 1 3 271
1962 SI WA 18:00:00 TS -17.99 124.29 0 0 O________OP___ jtwc_sh SH141962 -18.00 124.30 -1 -18.00 124.30 TC -17.98 124.28 1 3 271
1962 SI WA 21:00:00 TS -17.99 124.11 0 0 P________PP___ SH141962 -17.99 124.11 -1 -17.99 124.11 TC -17.99 124.12 1 4 270
1962 SI WA 23:00:00 TS -18.00 123.98 0 0 P________PO___ SH141962 -17.99 123.97 -1 -17.99 123.97 TC -18.00 124.00 1 4 266
1962 SI WA 1962-02-14 00:00:00 TS -18.00 123.91 0 0 O________OP___ jtwc_sh SH141962 -18.00 123.90 -1 -18.00 123.90 TC -18.01 123.94 1 4 259
1962 SI WA 03:00:00 TS -18.05 123.72 0 0 P________PP___ SH141962 -18.03 123.70 -1 -18.03 123.70 TC -18.07 123.75 1 4 254
1962 SI WA 06:00:00 TS -18.11 123.52 0 0 O________OP___ jtwc_sh SH141962 -18.10 123.50 -1 -18.10 123.50 TC -18.14 123.55 1 4 250
1962 SI WA 07:00:00 TS -18.14 123.45 0 0 P________PP___ SH141962 -18.12 123.43 -1 -18.12 123.43 TC -18.17 123.49 1 4 246
1962 SI WA 09:00:00 TS -18.20 123.31 0 0 P________PP___ SH141962 -18.18 123.30 -1 -18.18 123.30 TC -18.23 123.34 1 4 244
1962 SI WA 10:00:00 TS -18.23 123.25 0 0 P________PP___ SH141962 -18.22 123.23 -1 -18.22 123.23 TC -18.26 123.27 1 4 241
1962 SI WA 11:00:00 TS -18.27 123.18 0 0 P________PO___ SH141962 -18.26 123.17 -1 -18.26 123.17 TC -18.30 123.20 1 4 239
1962 SI WA 12:00:00 TS -18.31 123.11 0 0 O________OP___ jtwc_sh SH141962 -18.30 123.10 -1 -18.30 123.10 TC -18.33 123.14 1 5 234
1962 SI WA 15:00:00 TS -18.45 122.92 0 0 P________PP___ SH141962 -18.45 122.91 -1 -18.45 122.91 TC -18.45 122.94 1 5 233
1962 SI WA 16:00:00 TS -18.50 122.85 0 0 P________PP___ SH141962 -18.50 122.84 -1 -18.50 122.84 TC -18.49 122.87 1 5 234
1962 SI WA 18:00:00 TS -18.59 122.71 0 0 O________OP___ jtwc_sh SH141962 -18.60 122.70 -1 -18.60 122.70 TC -18.58 122.73 1 5 240
1962 SI WA 21:00:00 TS -18.70 122.48 0 0 P________PP___ SH141962 -18.70 122.47 -1 -18.70 122.47 TC -18.71 122.49 1 5 245
1962 SI WA 23:00:00 TS -18.78 122.30 0 0 P________PO___ SH141962 -18.76 122.30 -1 -18.76 122.30 TC -18.80 122.30 1 6 247
1962 SI WA 1962-02-15 00:00:00 TS -18.82 122.20 0 0 O________OP___ jtwc_sh SH141962 -18.80 122.20 -1 -18.80 122.20 TC -18.85 122.20 1 7 245
1962 SI WA 03:00:00 TS -18.97 121.87 0 0 P________PP___ SH141962 -18.95 121.87 -1 -18.95 121.87 TC -19.00 121.85 1 7 246
1962 SI WA 06:00:00 TS -19.11 121.49 0 0 O________OP___ jtwc_sh SH141962 -19.10 121.50 -1 -19.10 121.50 TC -19.14 121.47 1 8 248
1962 SI WA 07:00:00 TS -19.16 121.36 0 0 P________PP___ SH141962 -19.15 121.37 -1 -19.15 121.37 TC -19.18 121.34 1 8 252
1962 SI WA 09:00:00 TS -19.24 121.10 23 23 P________PP___ SH141962 -19.23 121.11 -1 -19.23 121.11 TC -19.25 121.07 1 8 255
1962 SI WA 11:00:00 TS -19.29 120.82 35 35 P________PO___ SH141962 -19.29 120.84 -1 -19.29 120.84 TC -19.30 120.80 1 8 260
1962 SI WA 12:00:00 TS -19.30 120.69 39 39 O________OP___ jtwc_sh SH141962 -19.30 120.70 -1 -19.30 120.70 TC -19.30 120.68 1 7 272
1962 SI WA 15:00:00 TS -19.27 120.31 59 59 P________PP___ SH141962 -19.26 120.31 -1 -19.26 120.31 TC -19.28 120.32 1 7 277
1962 SI WA 18:00:00 TS -19.21 119.91 84 84 O________OP___ jtwc_sh SH141962 -19.20 119.90 -1 -19.20 119.90 TC -19.23 119.94 1 8 277
1962 SI WA 21:00:00 TS -19.18 119.49 94 94 P________PP___ SH141962 -19.17 119.48 -1 -19.17 119.48 TC -19.20 119.52 1 8 272
1962 SI WA 23:00:00 TS -19.19 119.18 100 100 P________PO___ SH141962 -19.18 119.17 -1 -19.18 119.17 TC -19.20 119.20 2 9 266
1962 SI WA 1962-02-16 00:00:00 TS -19.21 119.01 101 94 O________OP___ jtwc_sh SH141962 -19.20 119.00 -1 -19.20 119.00 TC -19.21 119.03 2 11 258
1962 SI WA 03:00:00 TS -19.33 118.44 115 102 P________PP___ SH141962 -19.32 118.43 -1 -19.32 118.43 TC -19.29 118.45 2 12 256
1962 SI WA 06:00:00 TS -19.48 117.81 105 105 O________OP___ jtwc_sh SH141962 -19.50 117.80 -1 -19.50 117.80 TC -19.43 117.82 2 12 256
1962 SI WA 07:00:00 TS -19.52 117.60 113 108 __________P___ SH141962 -1 TC -19.48 117.60 2 12 259
1962 SI WA 09:00:00 TS -19.60 117.17 119 100 __________P___ SH141962 -1 TC -19.59 117.16 2 13 260
1962 SI WA 11:00:00 TS -19.68 116.72 100 __________O___ SH141962 -1 TC -19.70 116.70 1 13 260